ESND

Sveg Airport

Sweden
METAR ESND 162350Z AUTO 29002KT 9999 FEW041/// M19/M21 Q1008
Observed Flight Rules
Dec-16 @ 23:50 UTC (32 minutes ago) Visual Flight Rules
Wind Visibility Clouds
290° at 2 knots 10,000+ meters
  • Few at 4,100' AGL
Temperatures Readings
Current -19°C / -2°F
Dewpoint -21°C / -6°F
Humidity 84%
Altimeter 29.76" Hg
Pressure 1008 hPa
Elevation 359
METAR ESND 162350Z AUTO 29002KT 9999 FEW041/// M19/M21 Q1008
Observed Flight Rules
Dec-16 @ 23:50 UTC
(32 minutes ago)
VFR
Wind Visibility
290° at 2 knots 10,000+ meters
Clouds
  • Few at 4,100' AGL
Temperature Dewpoint
-19°C / -2°F -21°C / -6°F
Humidity Altimeter Pressure
84% 29.76" Hg 1008 hPa